Terminal Aerodrome Forecast
Issued by NWS

Home | Current Version | Previous Version | Text Only | Print | Product List | Glossary Off
Versions: 1 2 3 4 5 6 7 8 9 10 11 12 13 14

000
FTUS43 KICT 231720
TAFHUT
TAF
KHUT 231720Z 2318/2418 01016G24KT P6SM VCTS BKN090CB
      TEMPO 2318/2321 6SM -SHRA OVC080
     FM232200 36014G22KT P6SM VCSH BKN100
     FM240100 36010KT P6SM SCT120
     FM240600 34004KT P6SM FEW200
     FM241400 04005KT P6SM FEW200=

USA.gov is the U.S. government's official web portal to all federal, state and local government web resources and services.